Aktualne dane pomiarowe

Uwaga, wersja testowa! Automatyczne pobieranie danych za pomocą narzędzi lub skryptów to umożliwiających jest zabronione.

Dane meteo z obszaru Polski uzyskane na podstawie depesz SYNOP pobieranych co godzinę z NWS. Najedź myszką na symbol przedstawiony w tabeli, aby uzyskać informacje co do jego znaczenia. Prosimy pamiętać, że to testowa wersja strony, która jeszcze nie jest ukończona. Stworzono również jest krótki FAQ dotyczący korzystania z tej podstrony Anomalie temperatury w chwili obecnej odniesione są do okresu referencyjnego 1951-2016. Okres ten będzie później zmieniony na 1981-2010. Kliknij ikonę aby pobrać plik CSV. Kliknij ikonę aby wygenerować mapę synoptyczną dla danego terminu.

Wybierz Datę:    

        

Zielona Góra (12400)

Dane terminowe dla wybranej stacji. Kliknij datę, aby otrzymać dane z tego terminu dla wszystkich stacji.

TemperaturaZachmurzenieWiatrCiśnienieOpadyPogoda
 Data t td wb tx tn tg rh  Nt Nl Cl Cm Ch ws wd g1 g2 wx mslp ppp ch 24h 12h t ww ww w1 w2  
2019-05-10 23:00:00 9.4 7.0 7.8--- 8545.0wx-2wx--21012.6 989.3 0.4---------
2019-05-10 22:00:00 10.0 7.2 8.2--- 8345.0wx-2wx--21012.6 989.3 1.4---------
2019-05-10 21:00:00 10.8 7.7 8.8--- 8140.0wx-wx3wx--31012.3 989.1 1.8---------
2019-05-10 20:00:00 12.0 7.7 9.3--- 7520.0wxwxwxwx4wx--41012.0 988.9 2.0---------
2019-05-10 19:00:00 12.4 8.9 10.2--- 7930.0wxwxwxwx2wx--21010.9 987.9 1.4---------
2019-05-10 18:00:00 13.2 8.7 10.4 15.1 10.6- 7445.0wxwxwx1wx-1011010.2 987.3 0.9- 0.512wx-w1--
2019-05-10 17:00:00 13.7 8.1 10.3--- 6940.0wxwxwxwx2wx---1009.8 986.9 1.1---------
2019-05-10 16:00:00 14.0 8.8 10.8--- 7140.0wxwxwxwx2wx--21009.4 986.5 1.0---------
2019-05-10 15:00:00 13.3 8.4 10.3--- 7240.0wxwxwxwx5wx-1051009.3 986.4 1.4---wx-w1--
2019-05-10 14:00:00 13.8 9.6 11.1--- 7640.0wxwxwxwx3wx--31008.7 985.8 1.0---------
2019-05-10 13:00:00 12.1 10.0 10.7--- 8740.0wxwxwx3wx-1031008.5 985.5 1.1---wx---
2019-05-10 12:00:00 13.1 10.3 11.2--- 8340.0wxwxwx2wx--21007.9 985.0 1.3- 0.26wx-w1--
2019-05-10 11:00:00 12.2 10.8 11.2--- 9120.0wxwxwx2wx--21007.8 984.8 1.8---wx-w1--
2019-05-10 10:00:00 11.6 9.2 10.0--- 8530.0wxwxwx3wx---1007.4 984.4 1.9---wx---
2019-05-10 09:00:00 12.4 9.4 10.4--- 8245.0wxwxwx3wx--31006.6 983.7 1.7---------
2019-05-10 08:00:00 12.2 9.0 10.1--- 8145.0wxwxwxwx3wx--31005.9 983.0 1.6---------
2019-05-10 07:00:00 11.0 8.9 9.6--- 8745.0wxwxwxwx2wx--21005.5 982.5 1.5---------
2019-05-10 06:00:00 11.3 8.7 9.6 13.7 7.6 6 8440.0wxwxwxwxwx2wx--21005.0 982.0 1.4 1.2 0.012----- 5.1
2019-05-10 05:00:00 9.4 8.2 8.5--- 9212.0wxwxwxwxwx2wx--21004.5 981.4 1.2---------
2019-05-10 04:00:00 7.7 6.9 7.1--- 9515.0wxwxwxwx2wx--21004.2 981.0 1.0---------
2019-05-10 03:00:00 7.9 7.1 7.3--- 9512.0wxwxwxwx1wx--11003.8 980.6 0.6---------
2019-05-10 02:00:00 8.6 7.8 8.0--- 9525.0wx-wx2wx--21003.4 980.2 0.0---------
2019-05-10 01:00:00 8.9 8.0 8.2--- 9430.0wx-2wx--21003.1 980.0 0.0---------
2019-05-10 00:00:00 9.2 8.1 8.4--- 9330.0wx-2wx--21003.1 980.0 0.1- 0.06------
2019-05-09 23:00:00 9.6 8.5 8.8--- 9330.0wx-wx2wx--21003.3 980.2 0.4---------
2019-05-09 22:00:00 9.3 8.8 8.9--- 9725.0wx-2wx--21003.1 980.0 0.7---------
2019-05-09 21:00:00 10.0 9.1 9.3--- 9430.0wx-3wx--31002.9 979.9 1.0---------
2019-05-09 20:00:00 10.7 9.3 9.7--- 9140.0wxwxwx3wx--31002.8 979.8 1.1---------
2019-05-09 19:00:00 11.7 8.9 9.9--- 8340.0wxwxwxwx3wx--31002.2 979.3 0.8---------
2019-05-09 18:00:00 13.7 8.5 10.5 16.3 9.3- 7150.0wxwxwxwxwx2wx--21001.6 978.9 0.3- 1.012------
2019-05-09 17:00:00 16.1 4.8 10.0--- 4750.0wxwxwxwxwx1wx--11001.2 978.7 0.3---------
2019-05-09 16:00:00 16.1 6.2 10.6--- 5250.0wxwxwxwxwx2wx---1001.0 978.5 -0.2---------
2019-05-09 15:00:00 15.5 7.5 10.8--- 5950.0wxwxwxwxwx2wx--21001.2 978.6 -0.2---------
2019-05-09 14:00:00 14.7 7.3 10.4--- 6150.0wxwxwxwxwx3wx--31001.0 978.4 -0.4---------
2019-05-09 13:00:00 14.6 8.1 10.7--- 6545.0wxwxwxwxwx2wx--21001.3 978.7 -0.1---wx---
2019-05-09 12:00:00 13.7 9.3 10.9--- 7545.0wxwxwxwxwx2wx--21001.5 978.8 0.1- 1.06wx-w1w2--
2019-05-09 11:00:00 12.4 9.8 10.7--- 8445.0wxwxwxwx2wx--21001.6 978.8 0.3---wx-w1--
2019-05-09 10:00:00 11.8 10.4 10.8--- 9130.0wxwxwxwx2wx--21001.7 978.8 0.1---wx---
2019-05-09 09:00:00 11.6 10.3 10.7--- 9222.0wxwxwxwx2wx--21001.6 978.7 0.2---wx-w1--
2019-05-09 08:00:00 10.7 10.5 10.5--- 995.0wxwxwxwx2wx--21001.4 978.5 0.1---wx-w1w2--
2019-05-09 07:00:00 9.8 9.8 9.7--- 1002.0wxwxwxwx3wx--31001.7 978.7 0.3---wx-w1w2--
2019-05-09 06:00:00 9.3 9.3 9.2 14.9 8.8 9 1001.5wxwxwxwx2wx--21001.6 978.5 0.1 4.8 5.012wx-w1- 11.8
2019-05-09 05:00:00 8.9 8.8 8.8--- 992.8wxwxwxwx2wx--21001.5 978.4 -0.2---wx-w1w2--
2019-05-09 04:00:00 8.8 8.5 8.5--- 984.0wxwxwxwx3wx--31001.5 978.4 -0.5---wx-w1w2--
2019-05-09 03:00:00 8.9 8.0 8.2--- 948.0wxwxwxwx3wx--31001.5 978.4 -1.0---wx-w1--
2019-05-09 02:00:00 9.2 7.3 7.9--- 8815.0wxwxwxwx3wx--31001.7 978.6 -1.1---wx-w1--
2019-05-09 01:00:00 10.6 5.6 7.6--- 7140.0wxwxwx4wx--41001.9 978.9 -1.0---wx-w1--
2019-05-09 00:00:00 11.9 4.6 7.8--- 6150.0wxwxwx4wx--41002.3 979.4 -1.0--6wx-w1--
1.7 ms

 

Print Friendly, PDF & Email